PGT96LK LTFJ-EDDV
Flight info
| Callsign | PGT96LK |
|---|---|
| Flight time | N/A |
| Altitude | 36000 |
| Route | TUDBU DCT NAVOD DCT MOPUG DCT BEGLA DCT DEXIT DCT AKOSI DCT LASGA M726 LASTO M852 BIRKA T803 GITEX GITEX1Z |
| Aircraft | B738/M-SDE2E3FGIRWXY/LB1 |
Departure
| Time | N/A |
|---|---|
| Airport | Istanbul Sabiha Gökçen International Airport (LTFJ) |
Arrival
| Time | 2026-05-07 13:00 |
|---|---|
| Airport | Hannover Airport (EDDV) |
| Time | Latitude | Longitude | Altitude | Speed | Heading |
|---|---|---|---|---|---|
| 2026-05-07 10:42 | 42.84982 | 26.23308 | 36077 ft | 415 kts | 308° |
| 2026-05-07 10:42 | 42.86743 | 26.20146 | 36075 ft | 415 kts | 308° |
| 2026-05-07 10:42 | 42.90216 | 26.13899 | 36070 ft | 416 kts | 308° |
| 2026-05-07 10:43 | 42.93720 | 26.07583 | 36066 ft | 416 kts | 308° |
| 2026-05-07 10:43 | 42.97198 | 26.01299 | 36052 ft | 417 kts | 308° |
| 2026-05-07 10:44 | 43.00701 | 25.94957 | 36050 ft | 417 kts | 308° |
| 2026-05-07 10:44 | 43.04186 | 25.88635 | 36049 ft | 418 kts | 308° |
| 2026-05-07 10:45 | 43.07689 | 25.82267 | 36042 ft | 418 kts | 308° |
| 2026-05-07 10:45 | 43.11166 | 25.75933 | 36053 ft | 418 kts | 308° |
| 2026-05-07 10:46 | 43.14666 | 25.69542 | 36050 ft | 418 kts | 308° |
| 2026-05-07 10:46 | 43.18152 | 25.63164 | 36056 ft | 418 kts | 308° |
| 2026-05-07 10:47 | 43.21617 | 25.56809 | 36044 ft | 417 kts | 308° |
| 2026-05-07 10:47 | 43.25090 | 25.50427 | 36048 ft | 417 kts | 308° |
| 2026-05-07 10:48 | 43.28535 | 25.44082 | 36040 ft | 417 kts | 308° |
| 2026-05-07 10:48 | 43.31997 | 25.37692 | 36033 ft | 416 kts | 307° |
| 2026-05-07 10:49 | 43.35462 | 25.31283 | 36033 ft | 416 kts | 307° |
| 2026-05-07 10:49 | 43.38889 | 25.24931 | 36043 ft | 415 kts | 307° |
| 2026-05-07 10:50 | 43.42334 | 25.18531 | 36036 ft | 415 kts | 307° |
| 2026-05-07 10:50 | 43.45749 | 25.12174 | 36037 ft | 415 kts | 307° |
| 2026-05-07 10:51 | 43.49179 | 25.05773 | 36038 ft | 414 kts | 307° |
| 2026-05-07 10:51 | 43.52608 | 24.99361 | 36041 ft | 414 kts | 307° |
| 2026-05-07 10:52 | 43.56000 | 24.93005 | 36044 ft | 414 kts | 307° |
| 2026-05-07 10:52 | 43.59412 | 24.86597 | 36042 ft | 413 kts | 307° |
| 2026-05-07 10:53 | 43.62814 | 24.80196 | 36036 ft | 413 kts | 307° |
| 2026-05-07 10:53 | 43.66212 | 24.73784 | 36050 ft | 413 kts | 307° |
| 2026-05-07 10:54 | 43.69591 | 24.67396 | 36041 ft | 413 kts | 307° |
| 2026-05-07 10:54 | 43.72969 | 24.60999 | 36049 ft | 413 kts | 307° |
| 2026-05-07 10:55 | 43.76416 | 24.54646 | 36044 ft | 412 kts | 312° |
| 2026-05-07 10:55 | 43.80296 | 24.48770 | 36042 ft | 412 kts | 314° |
| 2026-05-07 10:56 | 43.84195 | 24.43036 | 36048 ft | 411 kts | 314° |
| 2026-05-07 10:56 | 43.88107 | 24.37227 | 36052 ft | 411 kts | 313° |
| 2026-05-07 10:57 | 43.91978 | 24.31419 | 36054 ft | 411 kts | 313° |
| 2026-05-07 10:57 | 43.95848 | 24.25582 | 36060 ft | 411 kts | 313° |
| 2026-05-07 10:58 | 43.99711 | 24.19739 | 36059 ft | 410 kts | 313° |
| 2026-05-07 10:58 | 44.03569 | 24.13890 | 36060 ft | 410 kts | 313° |
| 2026-05-07 10:59 | 44.07425 | 24.08034 | 36066 ft | 410 kts | 313° |
| 2026-05-07 10:59 | 44.11270 | 24.02182 | 36072 ft | 410 kts | 313° |
| 2026-05-07 11:00 | 44.15116 | 23.96317 | 36070 ft | 410 kts | 313° |
| 2026-05-07 11:00 | 44.18957 | 23.90446 | 36079 ft | 409 kts | 313° |
| 2026-05-07 11:01 | 44.22772 | 23.84603 | 36073 ft | 409 kts | 313° |
| 2026-05-07 11:01 | 44.26598 | 23.78732 | 36078 ft | 409 kts | 313° |
| 2026-05-07 11:02 | 44.29776 | 23.73845 | 36073 ft | 408 kts | 313° |
| 2026-05-07 11:02 | 44.34230 | 23.66986 | 36075 ft | 407 kts | 313° |
| 2026-05-07 11:03 | 44.38030 | 23.61116 | 36076 ft | 407 kts | 312° |
| 2026-05-07 11:03 | 44.41834 | 23.55229 | 36083 ft | 408 kts | 312° |
| 2026-05-07 11:04 | 44.45637 | 23.49331 | 36078 ft | 408 kts | 312° |
| 2026-05-07 11:04 | 44.49444 | 23.43414 | 36088 ft | 409 kts | 312° |
| 2026-05-07 11:05 | 44.53249 | 23.37489 | 36081 ft | 409 kts | 312° |
| 2026-05-07 11:05 | 44.57026 | 23.31594 | 36085 ft | 409 kts | 311° |
| 2026-05-07 11:06 | 44.60834 | 23.25639 | 36086 ft | 410 kts | 311° |
| 2026-05-07 11:06 | 44.64646 | 23.19666 | 36089 ft | 410 kts | 311° |
| 2026-05-07 11:07 | 44.68461 | 23.13673 | 36090 ft | 411 kts | 311° |
| 2026-05-07 11:07 | 44.72273 | 23.07673 | 36089 ft | 411 kts | 311° |
| 2026-05-07 11:08 | 44.76064 | 23.01694 | 36091 ft | 412 kts | 311° |
| 2026-05-07 11:08 | 44.79886 | 22.95653 | 36092 ft | 413 kts | 311° |
| 2026-05-07 11:09 | 44.83705 | 22.89602 | 36099 ft | 413 kts | 310° |
| 2026-05-07 11:09 | 44.87503 | 22.83573 | 36090 ft | 414 kts | 310° |
| 2026-05-07 11:10 | 44.91333 | 22.77480 | 36090 ft | 414 kts | 310° |
| 2026-05-07 11:10 | 44.95147 | 22.71399 | 36096 ft | 414 kts | 310° |
| 2026-05-07 11:11 | 44.98970 | 22.65290 | 36096 ft | 415 kts | 310° |
| 2026-05-07 11:11 | 45.02789 | 22.59174 | 36102 ft | 414 kts | 310° |
| 2026-05-07 11:12 | 45.06610 | 22.53042 | 36094 ft | 416 kts | 309° |
| 2026-05-07 11:12 | 45.10414 | 22.46922 | 36081 ft | 417 kts | 309° |
| 2026-05-07 11:13 | 45.14244 | 22.40748 | 36075 ft | 417 kts | 309° |
| 2026-05-07 11:13 | 45.18072 | 22.34565 | 36070 ft | 417 kts | 309° |
| 2026-05-07 11:14 | 45.21898 | 22.28370 | 36063 ft | 417 kts | 309° |
| 2026-05-07 11:14 | 45.25712 | 22.22182 | 36063 ft | 417 kts | 309° |
| 2026-05-07 11:15 | 45.29520 | 22.15988 | 36055 ft | 416 kts | 309° |
| 2026-05-07 11:15 | 45.33331 | 22.09776 | 36052 ft | 416 kts | 309° |
| 2026-05-07 11:16 | 45.37136 | 22.03559 | 36057 ft | 416 kts | 308° |
| 2026-05-07 11:16 | 45.40914 | 21.97373 | 36054 ft | 417 kts | 308° |
| 2026-05-07 11:17 | 45.44715 | 21.91137 | 36048 ft | 417 kts | 308° |
| 2026-05-07 11:17 | 45.48509 | 21.84897 | 36043 ft | 417 kts | 308° |
| 2026-05-07 11:18 | 45.52304 | 21.78642 | 36048 ft | 417 kts | 308° |
| 2026-05-07 11:18 | 45.56098 | 21.72375 | 36041 ft | 417 kts | 308° |
| 2026-05-07 11:19 | 45.59891 | 21.66094 | 36045 ft | 418 kts | 308° |
| 2026-05-07 11:19 | 45.63685 | 21.59798 | 36051 ft | 418 kts | 308° |
| 2026-05-07 11:20 | 45.67480 | 21.53486 | 36055 ft | 418 kts | 308° |
| 2026-05-07 11:20 | 45.71260 | 21.47181 | 36067 ft | 423 kts | 307° |
| 2026-05-07 11:21 | 45.75111 | 21.40746 | 36024 ft | 424 kts | 307° |
| 2026-05-07 11:21 | 45.78902 | 21.34404 | 36054 ft | 417 kts | 307° |
| 2026-05-07 11:22 | 45.82037 | 21.29141 | 36040 ft | 418 kts | 307° |
| 2026-05-07 11:22 | 45.85814 | 21.22788 | 36050 ft | 419 kts | 307° |
| 2026-05-07 11:23 | 45.89605 | 21.16397 | 36053 ft | 420 kts | 307° |
| 2026-05-07 11:23 | 45.93399 | 21.09987 | 36047 ft | 421 kts | 307° |
| 2026-05-07 11:24 | 45.97197 | 21.03554 | 36044 ft | 422 kts | 307° |
| 2026-05-07 11:24 | 46.00976 | 20.97140 | 36040 ft | 423 kts | 307° |
| 2026-05-07 11:25 | 46.04782 | 20.90665 | 36042 ft | 424 kts | 307° |
| 2026-05-07 11:25 | 46.08588 | 20.84173 | 36044 ft | 424 kts | 306° |
| 2026-05-07 11:26 | 46.12395 | 20.77666 | 36041 ft | 424 kts | 306° |
| 2026-05-07 11:26 | 46.16192 | 20.71156 | 36036 ft | 424 kts | 305° |
| 2026-05-07 11:27 | 46.19693 | 20.64369 | 36045 ft | 422 kts | 301° |
| 2026-05-07 11:27 | 46.23076 | 20.57401 | 36033 ft | 422 kts | 301° |
| 2026-05-07 11:28 | 46.26436 | 20.50474 | 36035 ft | 423 kts | 301° |
| 2026-05-07 11:28 | 46.29829 | 20.43519 | 36029 ft | 423 kts | 301° |
| 2026-05-07 11:29 | 46.33254 | 20.36507 | 36036 ft | 429 kts | 300° |
| 2026-05-07 11:29 | 46.36711 | 20.29412 | 36045 ft | 437 kts | 300° |
| 2026-05-07 11:30 | 46.40242 | 20.22157 | 36042 ft | 441 kts | 300° |
| 2026-05-07 11:30 | 46.43772 | 20.14888 | 36033 ft | 444 kts | 300° |
| 2026-05-07 11:31 | 46.47332 | 20.07538 | 36026 ft | 444 kts | 300° |
| 2026-05-07 11:31 | 46.50881 | 20.00190 | 36019 ft | 444 kts | 299° |
| 2026-05-07 11:32 | 46.56155 | 19.89235 | 36016 ft | 441 kts | 299° |
| 2026-05-07 11:33 | 46.59656 | 19.81935 | 36009 ft | 438 kts | 299° |
| 2026-05-07 11:33 | 46.63140 | 19.74665 | 36123 ft | 435 kts | 299° |
| 2026-05-07 11:33 | 46.64835 | 19.71117 | 36397 ft | 431 kts | 299° |
| 2026-05-07 11:34 | 46.66543 | 19.67533 | 36653 ft | 429 kts | 299° |
| 2026-05-07 11:34 | 46.68242 | 19.63962 | 36901 ft | 428 kts | 299° |
| 2026-05-07 11:34 | 46.69931 | 19.60406 | 37182 ft | 426 kts | 299° |
| 2026-05-07 11:34 | 46.71617 | 19.56854 | 37439 ft | 425 kts | 299° |
| 2026-05-07 11:35 | 46.73300 | 19.53305 | 37719 ft | 424 kts | 299° |
| 2026-05-07 11:35 | 46.74976 | 19.49768 | 37979 ft | 422 kts | 299° |
| 2026-05-07 11:35 | 46.76645 | 19.46238 | 37986 ft | 425 kts | 299° |
| 2026-05-07 11:36 | 46.80021 | 19.39081 | 38015 ft | 431 kts | 299° |
| 2026-05-07 11:36 | 46.83418 | 19.31864 | 38019 ft | 437 kts | 299° |
| 2026-05-07 11:37 | 46.86887 | 19.24480 | 38015 ft | 442 kts | 299° |
| 2026-05-07 11:37 | 46.90377 | 19.17034 | 38015 ft | 446 kts | 299° |
| 2026-05-07 11:38 | 46.93894 | 19.09510 | 38008 ft | 448 kts | 299° |
| 2026-05-07 11:38 | 46.97386 | 19.02028 | 37994 ft | 440 kts | 298° |
| 2026-05-07 11:39 | 47.00798 | 18.94695 | 38012 ft | 436 kts | 298° |
| 2026-05-07 11:39 | 47.04208 | 18.87333 | 38004 ft | 436 kts | 298° |
| 2026-05-07 11:40 | 47.07614 | 18.79962 | 37994 ft | 437 kts | 298° |
| 2026-05-07 11:40 | 47.11032 | 18.72547 | 37999 ft | 437 kts | 298° |
| 2026-05-07 11:41 | 47.14419 | 18.65181 | 38002 ft | 438 kts | 298° |
| 2026-05-07 11:41 | 47.17274 | 18.58958 | 38006 ft | 439 kts | 298° |
| 2026-05-07 11:42 | 47.21246 | 18.50274 | 38005 ft | 440 kts | 298° |
| 2026-05-07 11:42 | 47.24648 | 18.42816 | 38002 ft | 441 kts | 298° |
| 2026-05-07 11:43 | 47.28077 | 18.35279 | 38005 ft | 443 kts | 298° |
| 2026-05-07 11:43 | 47.31501 | 18.27731 | 37995 ft | 444 kts | 298° |
| 2026-05-07 11:44 | 47.34920 | 18.20175 | 37987 ft | 445 kts | 298° |
| 2026-05-07 11:44 | 47.38364 | 18.12542 | 37989 ft | 445 kts | 298° |
| 2026-05-07 11:45 | 47.41790 | 18.04929 | 37992 ft | 445 kts | 298° |
| 2026-05-07 11:45 | 47.45205 | 17.97317 | 37992 ft | 446 kts | 298° |
| 2026-05-07 11:46 | 47.48628 | 17.89667 | 37993 ft | 445 kts | 298° |
| 2026-05-07 11:46 | 47.52034 | 17.82035 | 37996 ft | 445 kts | 298° |
| 2026-05-07 11:47 | 47.55438 | 17.74385 | 38005 ft | 445 kts | 298° |
| 2026-05-07 11:47 | 47.58826 | 17.66748 | 37997 ft | 445 kts | 298° |
| 2026-05-07 11:48 | 47.62222 | 17.59074 | 38002 ft | 444 kts | 298° |
| 2026-05-07 11:48 | 47.65607 | 17.51402 | 37989 ft | 444 kts | 298° |
| 2026-05-07 11:49 | 47.68966 | 17.43768 | 37988 ft | 443 kts | 298° |
| 2026-05-07 11:49 | 47.72327 | 17.36108 | 37987 ft | 442 kts | 298° |
| 2026-05-07 11:50 | 47.75666 | 17.28475 | 37989 ft | 441 kts | 298° |
| 2026-05-07 11:50 | 47.79011 | 17.20808 | 37986 ft | 441 kts | 298° |
| 2026-05-07 11:51 | 47.82349 | 17.13135 | 37992 ft | 440 kts | 297° |
| 2026-05-07 11:51 | 47.85065 | 17.05118 | 37994 ft | 434 kts | 288° |
| 2026-05-07 11:52 | 47.87430 | 16.96861 | 37998 ft | 434 kts | 288° |
| 2026-05-07 11:52 | 47.89801 | 16.88553 | 37990 ft | 435 kts | 288° |
| 2026-05-07 11:53 | 47.92186 | 16.80274 | 37989 ft | 436 kts | 288° |
| 2026-05-07 11:53 | 47.94597 | 16.71935 | 37994 ft | 437 kts | 288° |
| 2026-05-07 11:54 | 47.97002 | 16.63601 | 37998 ft | 438 kts | 288° |
| 2026-05-07 11:54 | 47.99410 | 16.55227 | 37993 ft | 439 kts | 288° |
| 2026-05-07 11:55 | 48.01814 | 16.46836 | 38000 ft | 439 kts | 288° |
| 2026-05-07 11:55 | 48.04212 | 16.38440 | 37992 ft | 440 kts | 288° |
| 2026-05-07 11:56 | 48.06608 | 16.30020 | 37986 ft | 440 kts | 288° |
| 2026-05-07 11:56 | 48.08977 | 16.21666 | 37992 ft | 439 kts | 288° |
| 2026-05-07 11:57 | 48.11362 | 16.13225 | 37986 ft | 439 kts | 288° |
| 2026-05-07 11:57 | 48.13728 | 16.04818 | 37983 ft | 438 kts | 288° |
| 2026-05-07 11:58 | 48.16093 | 15.96389 | 37982 ft | 438 kts | 288° |
| 2026-05-07 11:58 | 48.18433 | 15.88019 | 37975 ft | 438 kts | 288° |
| 2026-05-07 11:59 | 48.20776 | 15.79609 | 37977 ft | 437 kts | 288° |
| 2026-05-07 11:59 | 48.23112 | 15.71192 | 37977 ft | 437 kts | 288° |
| 2026-05-07 12:00 | 48.25442 | 15.62768 | 37978 ft | 437 kts | 288° |
| 2026-05-07 12:00 | 48.27765 | 15.54342 | 37975 ft | 436 kts | 288° |
| 2026-05-07 12:01 | 48.30080 | 15.45912 | 37974 ft | 436 kts | 288° |
| 2026-05-07 12:01 | 48.32388 | 15.37476 | 37967 ft | 437 kts | 288° |
| 2026-05-07 12:02 | 48.34689 | 15.29040 | 37974 ft | 437 kts | 287° |
| 2026-05-07 12:02 | 48.36977 | 15.20619 | 37971 ft | 437 kts | 287° |
| 2026-05-07 12:03 | 48.39272 | 15.12139 | 37974 ft | 438 kts | 287° |
| 2026-05-07 12:03 | 48.41562 | 15.03651 | 37982 ft | 438 kts | 287° |
| 2026-05-07 12:04 | 48.43850 | 14.95140 | 37985 ft | 439 kts | 287° |
| 2026-05-07 12:04 | 48.46138 | 14.86593 | 37980 ft | 440 kts | 287° |
| 2026-05-07 12:05 | 48.48422 | 14.78032 | 37977 ft | 441 kts | 287° |
| 2026-05-07 12:05 | 48.50705 | 14.69445 | 37977 ft | 442 kts | 287° |
| 2026-05-07 12:06 | 48.52973 | 14.60883 | 37979 ft | 442 kts | 287° |
| 2026-05-07 12:06 | 48.55248 | 14.52261 | 37968 ft | 442 kts | 287° |
| 2026-05-07 12:07 | 48.57520 | 14.43620 | 37968 ft | 442 kts | 287° |
| 2026-05-07 12:07 | 48.59785 | 14.34973 | 37979 ft | 442 kts | 287° |
| 2026-05-07 12:08 | 48.62038 | 14.26337 | 37971 ft | 442 kts | 287° |
| 2026-05-07 12:08 | 48.63908 | 14.19144 | 37969 ft | 441 kts | 287° |
| 2026-05-07 12:09 | 48.66148 | 14.10501 | 37973 ft | 441 kts | 287° |
| 2026-05-07 12:09 | 48.68381 | 14.01849 | 37978 ft | 440 kts | 287° |
| 2026-05-07 12:10 | 48.70605 | 13.93203 | 37980 ft | 440 kts | 287° |
| 2026-05-07 12:10 | 48.72818 | 13.84565 | 37986 ft | 440 kts | 287° |
| 2026-05-07 12:11 | 48.75027 | 13.75915 | 37990 ft | 441 kts | 288° |
| 2026-05-07 12:11 | 48.78037 | 13.67834 | 37981 ft | 449 kts | 305° |
| 2026-05-07 12:12 | 48.82222 | 13.60759 | 37987 ft | 451 kts | 309° |
| 2026-05-07 12:12 | 48.86492 | 13.53774 | 37984 ft | 451 kts | 309° |
| 2026-05-07 12:13 | 48.90730 | 13.46751 | 37992 ft | 450 kts | 309° |
| 2026-05-07 12:13 | 48.94949 | 13.39671 | 37988 ft | 451 kts | 308° |
| 2026-05-07 12:14 | 48.99119 | 13.32632 | 37996 ft | 451 kts | 308° |
| 2026-05-07 12:14 | 49.03318 | 13.25523 | 37995 ft | 451 kts | 309° |
| 2026-05-07 12:15 | 49.07514 | 13.18404 | 37985 ft | 451 kts | 309° |
| 2026-05-07 12:15 | 49.11704 | 13.11277 | 37996 ft | 450 kts | 309° |
| 2026-05-07 12:16 | 49.15882 | 13.04149 | 37998 ft | 450 kts | 309° |
| 2026-05-07 12:16 | 49.20064 | 12.96996 | 37989 ft | 450 kts | 309° |
| 2026-05-07 12:17 | 49.24226 | 12.89856 | 38000 ft | 451 kts | 309° |
| 2026-05-07 12:17 | 49.28377 | 12.82717 | 37992 ft | 451 kts | 309° |
| 2026-05-07 12:18 | 49.32546 | 12.75527 | 37989 ft | 451 kts | 309° |
| 2026-05-07 12:18 | 49.36718 | 12.68312 | 37984 ft | 452 kts | 308° |
| 2026-05-07 12:19 | 49.40888 | 12.61079 | 37991 ft | 451 kts | 309° |
| 2026-05-07 12:19 | 49.45043 | 12.53854 | 37984 ft | 451 kts | 308° |
| 2026-05-07 12:20 | 49.49199 | 12.46606 | 37990 ft | 451 kts | 309° |
| 2026-05-07 12:20 | 49.53317 | 12.39404 | 37989 ft | 451 kts | 308° |
| 2026-05-07 12:21 | 49.57460 | 12.32138 | 37993 ft | 451 kts | 308° |
| 2026-05-07 12:21 | 49.61609 | 12.24840 | 37987 ft | 452 kts | 308° |
| 2026-05-07 12:22 | 49.65758 | 12.17523 | 37980 ft | 452 kts | 308° |
| 2026-05-07 12:22 | 49.69899 | 12.10204 | 37971 ft | 452 kts | 309° |
| 2026-05-07 12:23 | 49.74514 | 12.03552 | 37983 ft | 454 kts | 317° |
| 2026-05-07 12:23 | 49.79408 | 11.97341 | 37981 ft | 455 kts | 318° |
| 2026-05-07 12:24 | 49.84254 | 11.91161 | 37973 ft | 455 kts | 318° |
| 2026-05-07 12:24 | 49.89120 | 11.84860 | 37973 ft | 455 kts | 317° |
| 2026-05-07 12:25 | 49.93970 | 11.78530 | 37976 ft | 454 kts | 317° |
| 2026-05-07 12:25 | 49.97986 | 11.73272 | 37969 ft | 454 kts | 317° |
| 2026-05-07 12:26 | 50.03627 | 11.65868 | 37977 ft | 454 kts | 317° |
| 2026-05-07 12:26 | 50.08438 | 11.59538 | 37963 ft | 455 kts | 317° |
| 2026-05-07 12:27 | 50.13266 | 11.53169 | 37964 ft | 454 kts | 317° |
| 2026-05-07 12:27 | 50.18087 | 11.46791 | 37968 ft | 453 kts | 317° |
| 2026-05-07 12:28 | 50.22884 | 11.40427 | 37977 ft | 453 kts | 317° |
| 2026-05-07 12:28 | 50.27682 | 11.34044 | 37977 ft | 453 kts | 317° |
| 2026-05-07 12:29 | 50.30886 | 11.29773 | 37978 ft | 453 kts | 317° |
| 2026-05-07 12:29 | 50.35040 | 11.24909 | 37341 ft | 444 kts | 330° |
| 2026-05-07 12:29 | 50.37841 | 11.22876 | 36462 ft | 446 kts | 334° |
| 2026-05-07 12:29 | 50.40716 | 11.20884 | 35653 ft | 453 kts | 334° |
| 2026-05-07 12:30 | 50.43594 | 11.18869 | 35026 ft | 454 kts | 334° |
| 2026-05-07 12:30 | 50.46472 | 11.16837 | 34538 ft | 452 kts | 334° |
| 2026-05-07 12:30 | 50.49332 | 11.14804 | 34065 ft | 450 kts | 334° |
| 2026-05-07 12:30 | 50.52173 | 11.12770 | 33457 ft | 449 kts | 334° |
| 2026-05-07 12:31 | 50.54961 | 11.10746 | 32777 ft | 448 kts | 335° |
| 2026-05-07 12:31 | 50.57786 | 11.08631 | 32216 ft | 447 kts | 335° |
| 2026-05-07 12:31 | 50.60595 | 11.06466 | 32093 ft | 452 kts | 334° |
| 2026-05-07 12:32 | 50.66226 | 11.02061 | 31987 ft | 444 kts | 334° |
| 2026-05-07 12:32 | 50.71716 | 10.97722 | 31999 ft | 442 kts | 334° |
| 2026-05-07 12:33 | 50.80051 | 10.91106 | 32023 ft | 450 kts | 334° |
| 2026-05-07 12:33 | 50.85684 | 10.86691 | 32011 ft | 452 kts | 338° |
| 2026-05-07 12:34 | 50.88689 | 10.85218 | 31778 ft | 452 kts | 349° |
| 2026-05-07 12:34 | 50.91777 | 10.84314 | 31552 ft | 452 kts | 351° |
| 2026-05-07 12:34 | 50.94839 | 10.83509 | 31294 ft | 451 kts | 352° |
| 2026-05-07 12:34 | 50.97925 | 10.82708 | 31045 ft | 450 kts | 352° |
| 2026-05-07 12:35 | 51.01022 | 10.81881 | 30796 ft | 450 kts | 352° |
| 2026-05-07 12:35 | 51.04147 | 10.81017 | 30545 ft | 450 kts | 351° |
| 2026-05-07 12:35 | 51.07181 | 10.80153 | 30305 ft | 450 kts | 351° |
| 2026-05-07 12:35 | 51.10312 | 10.79245 | 30047 ft | 450 kts | 351° |
| 2026-05-07 12:36 | 51.13330 | 10.78360 | 29748 ft | 443 kts | 351° |
| 2026-05-07 12:36 | 51.16308 | 10.77481 | 29423 ft | 429 kts | 351° |
| 2026-05-07 12:36 | 51.19226 | 10.76618 | 29146 ft | 423 kts | 351° |
| 2026-05-07 12:36 | 51.22112 | 10.75766 | 28859 ft | 422 kts | 351° |
| 2026-05-07 12:37 | 51.24992 | 10.74917 | 28589 ft | 421 kts | 351° |
| 2026-05-07 12:37 | 51.27877 | 10.74065 | 28312 ft | 421 kts | 351° |
| 2026-05-07 12:37 | 51.29824 | 10.73490 | 28116 ft | 420 kts | 351° |
| 2026-05-07 12:37 | 51.33625 | 10.72365 | 27769 ft | 419 kts | 351° |
| 2026-05-07 12:38 | 51.36504 | 10.71511 | 27510 ft | 419 kts | 351° |
| 2026-05-07 12:38 | 51.39364 | 10.70662 | 27247 ft | 418 kts | 351° |
| 2026-05-07 12:38 | 51.42221 | 10.69813 | 26969 ft | 417 kts | 350° |
| 2026-05-07 12:38 | 51.45069 | 10.68965 | 26714 ft | 415 kts | 350° |
| 2026-05-07 12:39 | 51.47838 | 10.67752 | 26406 ft | 413 kts | 336° |
| 2026-05-07 12:39 | 51.50239 | 10.65287 | 25997 ft | 409 kts | 318° |
| 2026-05-07 12:39 | 51.52155 | 10.62019 | 25578 ft | 405 kts | 310° |
| 2026-05-07 12:39 | 51.53951 | 10.58555 | 25084 ft | 403 kts | 309° |
| 2026-05-07 12:40 | 51.55719 | 10.55090 | 24645 ft | 400 kts | 309° |
| 2026-05-07 12:40 | 51.57470 | 10.51646 | 24236 ft | 395 kts | 309° |
| 2026-05-07 12:40 | 51.59210 | 10.48221 | 23827 ft | 392 kts | 309° |
| 2026-05-07 12:40 | 51.60926 | 10.44845 | 23399 ft | 388 kts | 309° |
| 2026-05-07 12:41 | 51.62626 | 10.41504 | 22924 ft | 384 kts | 309° |
| 2026-05-07 12:41 | 51.64322 | 10.38177 | 22410 ft | 382 kts | 309° |
| 2026-05-07 12:41 | 51.66005 | 10.34881 | 21939 ft | 379 kts | 309° |
| 2026-05-07 12:41 | 51.67673 | 10.31620 | 21509 ft | 376 kts | 309° |
| 2026-05-07 12:42 | 51.68779 | 10.29460 | 21200 ft | 374 kts | 309° |
| 2026-05-07 12:42 | 51.70965 | 10.25195 | 20588 ft | 371 kts | 309° |
| 2026-05-07 12:42 | 51.72606 | 10.21992 | 20136 ft | 369 kts | 309° |
| 2026-05-07 12:42 | 51.74234 | 10.18811 | 19711 ft | 367 kts | 309° |
| 2026-05-07 12:43 | 51.75860 | 10.15630 | 19279 ft | 365 kts | 309° |
| 2026-05-07 12:43 | 51.77468 | 10.12479 | 18850 ft | 363 kts | 309° |
| 2026-05-07 12:43 | 51.79075 | 10.09326 | 18407 ft | 362 kts | 309° |
| 2026-05-07 12:43 | 51.80655 | 10.06220 | 17933 ft | 360 kts | 309° |
| 2026-05-07 12:44 | 51.82252 | 10.03072 | 17517 ft | 356 kts | 309° |
| 2026-05-07 12:44 | 51.83817 | 9.99981 | 17085 ft | 354 kts | 309° |
| 2026-05-07 12:44 | 51.85345 | 9.96953 | 16994 ft | 341 kts | 309° |
| 2026-05-07 12:44 | 51.86842 | 9.94035 | 16751 ft | 334 kts | 311° |
| 2026-05-07 12:45 | 51.88398 | 9.91190 | 16080 ft | 341 kts | 312° |
| 2026-05-07 12:45 | 51.89999 | 9.88324 | 15524 ft | 345 kts | 312° |
| 2026-05-07 12:45 | 51.91605 | 9.85452 | 15109 ft | 343 kts | 312° |
| 2026-05-07 12:45 | 51.93195 | 9.82592 | 14753 ft | 339 kts | 312° |
| 2026-05-07 12:46 | 51.94744 | 9.79788 | 14346 ft | 337 kts | 312° |
| 2026-05-07 12:46 | 51.96304 | 9.76951 | 13934 ft | 336 kts | 312° |
| 2026-05-07 12:46 | 51.97851 | 9.74128 | 13502 ft | 334 kts | 312° |
| 2026-05-07 12:46 | 51.99387 | 9.71315 | 13099 ft | 331 kts | 312° |
| 2026-05-07 12:47 | 52.00904 | 9.68534 | 12706 ft | 329 kts | 312° |
| 2026-05-07 12:47 | 52.02420 | 9.65751 | 12269 ft | 328 kts | 312° |
| 2026-05-07 12:47 | 52.03926 | 9.62984 | 11885 ft | 325 kts | 312° |
| 2026-05-07 12:47 | 52.05414 | 9.60244 | 11619 ft | 319 kts | 312° |
| 2026-05-07 12:48 | 52.06855 | 9.57586 | 11520 ft | 308 kts | 312° |
| 2026-05-07 12:48 | 52.08248 | 9.55016 | 11429 ft | 297 kts | 312° |
| 2026-05-07 12:48 | 52.09595 | 9.52527 | 11265 ft | 290 kts | 312° |
| 2026-05-07 12:48 | 52.10472 | 9.50905 | 11111 ft | 287 kts | 312° |
| 2026-05-07 12:49 | 52.12238 | 9.47641 | 10668 ft | 287 kts | 312° |
| 2026-05-07 12:49 | 52.13552 | 9.45207 | 10374 ft | 286 kts | 312° |
| 2026-05-07 12:49 | 52.14844 | 9.42813 | 10079 ft | 284 kts | 312° |
| 2026-05-07 12:49 | 52.16148 | 9.40393 | 9771 ft | 283 kts | 312° |
| 2026-05-07 12:50 | 52.17441 | 9.37991 | 9456 ft | 281 kts | 312° |
| 2026-05-07 12:50 | 52.18725 | 9.35605 | 9138 ft | 280 kts | 312° |
| 2026-05-07 12:50 | 52.20005 | 9.33222 | 8802 ft | 279 kts | 312° |
| 2026-05-07 12:50 | 52.21286 | 9.30836 | 8470 ft | 279 kts | 313° |
| 2026-05-07 12:51 | 52.22729 | 9.28789 | 8156 ft | 275 kts | 334° |
| 2026-05-07 12:51 | 52.24536 | 9.27990 | 7840 ft | 267 kts | 358° |
| 2026-05-07 12:51 | 52.26360 | 9.28418 | 7350 ft | 266 kts | 17° |
| 2026-05-07 12:51 | 52.28123 | 9.29326 | 6867 ft | 265 kts | 18° |
| 2026-05-07 12:52 | 52.29858 | 9.30235 | 6446 ft | 262 kts | 18° |
| 2026-05-07 12:52 | 52.31599 | 9.31139 | 5931 ft | 261 kts | 18° |
| 2026-05-07 12:52 | 52.33326 | 9.32021 | 5472 ft | 259 kts | 17° |
| 2026-05-07 12:52 | 52.35102 | 9.32428 | 5077 ft | 256 kts | 4° |
| 2026-05-07 12:53 | 52.36799 | 9.32489 | 5044 ft | 240 kts | 3° |
| 2026-05-07 12:53 | 52.37908 | 9.32520 | 4963 ft | 231 kts | 3° |
| 2026-05-07 12:53 | 52.39935 | 9.32607 | 4860 ft | 209 kts | 4° |
| 2026-05-07 12:53 | 52.41351 | 9.32686 | 4674 ft | 200 kts | 4° |
| 2026-05-07 12:54 | 52.42713 | 9.32770 | 4475 ft | 190 kts | 5° |
| 2026-05-07 12:54 | 52.44015 | 9.32853 | 4266 ft | 186 kts | 5° |
| 2026-05-07 12:54 | 52.45255 | 9.33204 | 4041 ft | 179 kts | 31° |
| 2026-05-07 12:54 | 52.46095 | 9.34623 | 3915 ft | 175 kts | 63° |
| 2026-05-07 12:55 | 52.46336 | 9.36576 | 3716 ft | 178 kts | 89° |
| 2026-05-07 12:55 | 52.46319 | 9.38636 | 3514 ft | 182 kts | 89° |
| 2026-05-07 12:55 | 52.46297 | 9.40011 | 3370 ft | 182 kts | 90° |
| 2026-05-07 12:55 | 52.46225 | 9.42734 | 3215 ft | 175 kts | 91° |
| 2026-05-07 12:56 | 52.46166 | 9.44738 | 3010 ft | 178 kts | 91° |
| 2026-05-07 12:56 | 52.46105 | 9.46783 | 2789 ft | 181 kts | 91° |
| 2026-05-07 12:56 | 52.46043 | 9.48830 | 2522 ft | 178 kts | 91° |
| 2026-05-07 12:56 | 52.45984 | 9.50808 | 2280 ft | 169 kts | 91° |
| 2026-05-07 12:57 | 52.45947 | 9.52054 | 2132 ft | 161 kts | 91° |
| 2026-05-07 12:57 | 52.45894 | 9.53848 | 1910 ft | 155 kts | 91° |
| 2026-05-07 12:57 | 52.45844 | 9.55585 | 1738 ft | 151 kts | 91° |
| 2026-05-07 12:57 | 52.45795 | 9.57285 | 1499 ft | 147 kts | 90° |
| 2026-05-07 12:58 | 52.45748 | 9.58944 | 1300 ft | 143 kts | 91° |
| 2026-05-07 12:58 | 52.45701 | 9.60579 | 1111 ft | 145 kts | 91° |
| 2026-05-07 12:58 | 52.45654 | 9.62257 | 884 ft | 149 kts | 91° |
| 2026-05-07 12:58 | 52.45602 | 9.63946 | 666 ft | 147 kts | 90° |
| 2026-05-07 12:59 | 52.45559 | 9.65604 | 468 ft | 144 kts | 91° |
| 2026-05-07 12:59 | 52.45512 | 9.67234 | 274 ft | 144 kts | 90° |
| 2026-05-07 12:59 | 52.45468 | 9.68809 | 182 ft | 128 kts | 92° |
| 2026-05-07 12:59 | 52.45437 | 9.69914 | 181 ft | 64 kts | 92° |
| 2026-05-07 13:00 | 52.45424 | 9.70409 | 181 ft | 34 kts | 92° |
| 2026-05-07 13:00 | 52.45417 | 9.70640 | 182 ft | 10 kts | 75° |
| 2026-05-07 13:00 | 52.45486 | 9.70670 | 179 ft | 12 kts | 4° |
| 2026-05-07 13:00 | 52.45550 | 9.70674 | 177 ft | 8 kts | 4° |
| 2026-05-07 13:01 | 52.45606 | 9.70675 | 177 ft | 8 kts | 352° |
| 2026-05-07 13:01 | 52.45648 | 9.70608 | 177 ft | 10 kts | 287° |
| 2026-05-07 13:01 | 52.45653 | 9.70453 | 177 ft | 16 kts | 270° |
| 2026-05-07 13:01 | 52.45660 | 9.70266 | 177 ft | 16 kts | 272° |
| 2026-05-07 13:02 | 52.45665 | 9.70105 | 177 ft | 14 kts | 271° |
| 2026-05-07 13:02 | 52.45668 | 9.69985 | 177 ft | 7 kts | 274° |
| 2026-05-07 13:02 | 52.45684 | 9.69922 | 177 ft | 6 kts | 346° |
| 2026-05-07 13:02 | 52.45713 | 9.69937 | 177 ft | 3 kts | 30° |
| 2026-05-07 13:03 | 52.45732 | 9.69957 | 177 ft | 3 kts | 33° |
| 2026-05-07 13:03 | 52.45740 | 9.69966 | 177 ft | 0 kts | 32° |
| 2026-05-07 13:12 | 52.45740 | 9.69965 | 177 ft | 0 kts | 32° |